»·PEaware :: WAT380 KBOI-KSEA

WAT380 :: KBOI-KSEA

FLIGHT INFORMATION

Flight Status: Arrived
Operator:
Walker Air Transport
More flights by this operator :: More flights under this callsign
Pilot: Spencer M. (27733)
Aircraft: BEECH AIRCRAFT PREMIER
(PRM1)
More flights by this aircraft type
Origin: KBOI Boise Air Terminal/Gowen
United States
Destination: KSEA Seattle-Tacoma Intl
United States
More flights between these airports :: More routes between these airports
Route: +BOI3 OLAAH PREIS PDT CHINS4
File this flight plan on PilotEdge
Remarks:
Altitude:
(Current/Filed)
26,000ft
Speed:
(Current/Filed)
390kts
Departed: 05-Nov-20 09:44 AM
Arrived: 05-Nov-20 11:18 AM
Distance/Time
Traveled:
345nm/1:34
Distance/Time
To Go:
Arrived

Flight Plot

Page will automatically refresh every two minutes.

Flight plan parsing failed; only flown route is shown


Map Options




Map Legend


Flown Route
Filed Route
Departure Airport
Arrival Airport
Navaid (VOR, NDB)
Fix

Horizontal Profiles

Position Reports

Time Latitude Longitude Heading Altitude Ground
Speed
05-Nov-20 09:28 43.564141 -116.240686 355 2878ft 0kts
05-Nov-20 09:29 43.564141 -116.240686 355 2878ft 0kts
05-Nov-20 09:30 43.564141 -116.240686 355 2878ft 0kts
05-Nov-20 09:31 43.564141 -116.240686 355 2878ft 0kts
05-Nov-20 09:32 43.564141 -116.240686 355 2878ft 0kts
05-Nov-20 09:33 43.564141 -116.240686 355 2878ft 0kts
05-Nov-20 09:34 43.564141 -116.240686 355 2878ft 0kts
05-Nov-20 09:35 43.564141 -116.240686 355 2878ft 0kts
05-Nov-20 09:36 43.564179 -116.240690 355 2878ft 1kts
05-Nov-20 09:37 43.566622 -116.242697 2 2878ft 12kts
05-Nov-20 09:38 43.569080 -116.242646 0 2878ft 0kts
05-Nov-20 09:39 43.569080 -116.242646 0 2878ft 0kts
05-Nov-20 09:40 43.569080 -116.242646 0 2878ft 0kts
05-Nov-20 09:41 43.569080 -116.242646 0 2878ft 0kts
05-Nov-20 09:42 43.569644 -116.241308 116 2878ft 24kts
05-Nov-20 09:43 43.555859 -116.199812 116 3562ft 179kts
05-Nov-20 09:44 43.533181 -116.126957 113 5611ft 231kts
05-Nov-20 09:45 43.508379 -116.038271 111 7636ft 263kts
05-Nov-20 09:46 43.483325 -115.940270 110 9739ft 277kts
05-Nov-20 09:47 43.458826 -115.838483 110 11911ft 282kts
05-Nov-20 09:49 43.435253 -115.737372 110 14099ft 273kts
05-Nov-20 09:50 43.415246 -115.638584 115 15972ft 273kts
05-Nov-20 09:51 43.387420 -115.535407 115 16001ft 290kts
05-Nov-20 09:52 43.359403 -115.431961 115 16002ft 289kts
05-Nov-20 09:53 43.331300 -115.328895 115 16118ft 282kts
05-Nov-20 09:54 43.342532 -115.246909 13 18121ft 226kts
05-Nov-20 09:55 43.387203 -115.269181 295 19957ft 166kts
05-Nov-20 09:56 43.415184 -115.321212 295 21455ft 172kts
05-Nov-20 09:57 43.443641 -115.374471 295 22933ft 174kts
05-Nov-20 09:58 43.472043 -115.427519 294 24402ft 170kts
05-Nov-20 09:59 43.499136 -115.478144 293 25852ft 158kts
05-Nov-20 10:00 43.528609 -115.534548 296 26007ft 209kts
05-Nov-20 10:01 43.567084 -115.606577 297 26001ft 256kts
05-Nov-20 10:02 43.612275 -115.691627 297 26009ft 290kts
05-Nov-20 10:03 43.661865 -115.785414 298 26004ft 315kts
05-Nov-20 10:04 43.715055 -115.886150 298 26018ft 331kts
05-Nov-20 10:05 43.769861 -115.991104 298 25994ft 342kts
05-Nov-20 10:05 43.817137 -116.081545 298 25418ft 358kts
05-Nov-20 10:07 43.886495 -116.213960 299 23978ft 367kts
05-Nov-20 10:07 43.936041 -116.309802 299 22734ft 368kts
05-Nov-20 10:09 44.005132 -116.442958 299 21996ft 357kts
05-Nov-20 10:09 44.052623 -116.535314 298 22000ft 351kts
05-Nov-20 10:10 44.108906 -116.644926 298 21989ft 345kts
05-Nov-20 10:11 44.164851 -116.752965 301 21997ft 346kts
05-Nov-20 10:12 44.232532 -116.850486 307 22003ft 351kts
05-Nov-20 10:13 44.301837 -116.945244 306 22006ft 349kts
05-Nov-20 10:14 44.371378 -117.040891 306 21984ft 352kts
05-Nov-20 10:15 44.440763 -117.136964 307 21959ft 353kts
05-Nov-20 10:16 44.510609 -117.233820 306 21923ft 354kts
05-Nov-20 10:17 44.580024 -117.330387 305 21935ft 350kts
05-Nov-20 10:18 44.649096 -117.426811 306 21939ft 349kts
05-Nov-20 10:19 44.716936 -117.522669 305 22003ft 345kts
05-Nov-20 10:20 44.785106 -117.617766 306 22006ft 344kts
05-Nov-20 10:21 44.852598 -117.713744 305 21991ft 346kts
05-Nov-20 10:22 44.920417 -117.810199 305 22004ft 347kts
05-Nov-20 10:23 44.988542 -117.906960 305 21991ft 348kts
05-Nov-20 10:24 45.056892 -118.004071 305 21974ft 349kts
05-Nov-20 10:25 45.124693 -118.101761 304 21975ft 347kts
05-Nov-20 10:26 45.192473 -118.198811 304 22020ft 345kts
05-Nov-20 10:27 45.259567 -118.295839 304 22028ft 343kts
05-Nov-20 10:28 45.326058 -118.392704 304 22000ft 343kts
05-Nov-20 10:29 45.392936 -118.488919 304 22007ft 342kts
05-Nov-20 10:30 45.458992 -118.585875 304 22017ft 341kts
05-Nov-20 10:31 45.525229 -118.682809 303 22000ft 341kts
05-Nov-20 10:32 45.591599 -118.780547 304 21965ft 344kts
05-Nov-20 10:33 45.657841 -118.878178 304 21963ft 344kts
05-Nov-20 10:34 45.722813 -118.977895 299 21999ft 339kts
05-Nov-20 10:35 45.783214 -119.081390 300 22006ft 340kts
05-Nov-20 10:36 45.844271 -119.183984 299 22000ft 339kts
05-Nov-20 10:37 45.904520 -119.287399 299 21996ft 337kts
05-Nov-20 10:38 45.964851 -119.390036 299 21991ft 337kts
05-Nov-20 10:39 46.025073 -119.493192 299 21978ft 337kts
05-Nov-20 10:40 46.085084 -119.595940 298 22002ft 334kts
05-Nov-20 10:41 46.144457 -119.698493 298 21991ft 334kts
05-Nov-20 10:42 46.203886 -119.801329 299 21955ft 335kts
05-Nov-20 10:43 46.263040 -119.904441 298 21960ft 334kts
05-Nov-20 10:44 46.322040 -120.007235 299 21961ft 334kts
05-Nov-20 10:45 46.382807 -120.113352 298 21952ft 332kts
05-Nov-20 10:46 46.441345 -120.216431 298 21985ft 331kts
05-Nov-20 10:47 46.499710 -120.319416 298 21988ft 331kts
05-Nov-20 10:48 46.557827 -120.422522 297 21989ft 331kts
05-Nov-20 10:49 46.611463 -120.529006 292 21992ft 322kts
05-Nov-20 10:50 46.662338 -120.636184 293 22018ft 322kts
05-Nov-20 10:51 46.713067 -120.744041 292 22021ft 324kts
05-Nov-20 10:52 46.764404 -120.852017 293 22033ft 324kts
05-Nov-20 10:53 46.815404 -120.959820 292 22026ft 323kts
05-Nov-20 10:54 46.866578 -121.068224 293 22035ft 324kts
05-Nov-20 10:55 46.916827 -121.176297 291 22038ft 322kts
05-Nov-20 10:56 46.967649 -121.285839 291 20530ft 320kts
05-Nov-20 10:57 47.015648 -121.388894 290 18510ft 293kts
05-Nov-20 10:58 47.060784 -121.485703 292 16504ft 287kts
05-Nov-20 10:59 47.103507 -121.579025 291 15997ft 262kts
05-Nov-20 11:00 47.143559 -121.665552 290 16016ft 250kts
05-Nov-20 11:01 47.182658 -121.750363 291 15724ft 255kts
05-Nov-20 11:02 47.220706 -121.836443 291 14199ft 247kts
05-Nov-20 11:03 47.258161 -121.924790 294 12306ft 250kts
05-Nov-20 11:04 47.294070 -122.003415 296 12028ft 219kts
05-Nov-20 11:05 47.329513 -122.075502 297 12042ft 217kts
05-Nov-20 11:06 47.365754 -122.146994 308 12060ft 222kts
05-Nov-20 11:07 47.430745 -122.161188 347 10840ft 253kts
05-Nov-20 11:08 47.503291 -122.172420 346 8466ft 239kts
05-Nov-20 11:09 47.569463 -122.181248 347 6959ft 206kts
05-Nov-20 11:10 47.627879 -122.192075 318 5532ft 185kts
05-Nov-20 11:11 47.634902 -122.258533 265 4077ft 169kts
05-Nov-20 11:12 47.605911 -122.297259 205 3105ft 158kts
05-Nov-20 11:13 47.566063 -122.303510 185 2348ft 146kts
05-Nov-20 11:14 47.530152 -122.306548 181 1732ft 119kts
05-Nov-20 11:15 47.494460 -122.307570 181 1122ft 129kts
05-Nov-20 11:16 47.462255 -122.307735 182 457ft 104kts
05-Nov-20 11:17 47.443680 -122.307821 173 440ft 21kts
05-Nov-20 11:18 47.441563 -122.306355 177 440ft 16kts
05-Nov-20 11:19 47.440922 -122.302912 5 440ft 11kts
05-Nov-20 11:20 47.441860 -122.301764 111 440ft 0kts

Navigation Log

Ident Type
Flight plan parsing failed, navigation log unavailable